createdAt,value
2022-11-29T00:01:07.075Z,17.17
2022-11-29T00:03:34.988Z,17.00
2022-11-29T00:06:11.489Z,19.20
2022-11-29T00:08:39.719Z,24.65
2022-11-29T00:11:41.426Z,19.42
2022-11-29T00:14:11.521Z,21.93
2022-11-29T00:16:41.320Z,18.75
2022-11-29T00:19:10.314Z,18.45
2022-11-29T00:21:38.149Z,19.17
2022-11-29T00:24:05.824Z,19.17
2022-11-29T00:26:33.277Z,20.53
2022-11-29T00:29:00.713Z,21.15
2022-11-29T00:31:30.792Z,18.92
2022-11-29T00:34:00.652Z,23.20
2022-11-29T00:36:28.786Z,18.92
2022-11-29T00:38:56.373Z,19.43
2022-11-29T00:41:23.790Z,21.33
2022-11-29T00:43:51.253Z,21.58
2022-11-29T00:46:19.060Z,19.27
2022-11-29T00:48:46.587Z,22.27
2022-11-29T00:51:14.337Z,20.13
2022-11-29T00:53:41.705Z,19.95
2022-11-29T00:56:09.432Z,21.05
2022-11-29T00:58:37.826Z,18.98
2022-11-29T01:01:05.512Z,22.90
2022-11-29T01:03:33.062Z,23.20
2022-11-29T01:06:09.303Z,22.13
2022-11-29T01:08:37.541Z,20.80
2022-11-29T01:11:12.370Z,22.40
2022-11-29T01:13:40.817Z,18.80
2022-11-29T01:16:08.661Z,22.23
2022-11-29T01:18:36.997Z,19.98
2022-11-29T01:21:06.429Z,20.35
2022-11-29T01:23:35.140Z,20.15
2022-11-29T01:26:10.935Z,22.15
2022-11-29T01:28:39.328Z,22.30
2022-11-29T01:31:33.853Z,18.77
2022-11-29T01:34:03.663Z,17.70
2022-11-29T01:36:31.681Z,18.48
2022-11-29T01:39:04.171Z,19.55
2022-11-29T01:41:34.000Z,19.33
2022-11-29T01:44:12.247Z,20.55
2022-11-29T01:46:42.284Z,18.95
2022-11-29T01:49:17.739Z,18.55
2022-11-29T01:51:55.015Z,22.23
2022-11-29T01:54:22.851Z,22.10
2022-11-29T01:56:52.368Z,20.05
2022-11-29T01:59:23.824Z,22.08
2022-11-29T02:01:52.263Z,19.20
2022-11-29T02:04:20.653Z,17.27
2022-11-29T02:06:48.187Z,18.70
2022-11-29T02:09:23.647Z,21.58
2022-11-29T02:12:17.555Z,19.45
2022-11-29T02:15:17.834Z,20.98
2022-11-29T02:18:05.522Z,19.13
2022-11-29T02:20:51.653Z,18.53
2022-11-29T02:24:07.851Z,21.10
2022-11-29T02:26:44.047Z,18.02
2022-11-29T02:29:52.612Z,18.25
2022-11-29T02:32:51.112Z,17.27
2022-11-29T02:35:35.740Z,18.33
2022-11-29T02:38:22.318Z,17.73
2022-11-29T02:41:12.761Z,17.55
2022-11-29T02:44:21.012Z,14.30
2022-11-29T02:47:15.833Z,16.80
2022-11-29T02:49:52.824Z,16.63
2022-11-29T02:52:55.441Z,18.55
2022-11-29T02:55:41.008Z,17.58
2022-11-29T02:58:32.199Z,16.73
2022-11-29T03:01:32.413Z,18.40
2022-11-29T03:04:11.507Z,13.80
2022-11-29T03:07:13.833Z,17.45
2022-11-29T03:09:49.625Z,16.15
2022-11-29T03:12:40.998Z,15.10
2022-11-29T03:15:42.692Z,15.80
2022-11-29T03:18:28.373Z,14.90
2022-11-29T03:21:08.731Z,16.00
2022-11-29T03:23:48.514Z,15.30
2022-11-29T03:26:24.209Z,14.98
2022-11-29T03:29:07.459Z,16.38
2022-11-29T03:31:36.478Z,14.53
2022-11-29T03:34:25.648Z,13.52
2022-11-29T03:36:57.024Z,17.75
2022-11-29T03:39:45.710Z,15.10
2022-11-29T03:42:26.645Z,16.92
2022-11-29T03:45:02.072Z,16.60
2022-11-29T03:47:43.061Z,14.18
2022-11-29T03:50:35.990Z,15.40
2022-11-29T03:53:23.611Z,13.18
2022-11-29T03:55:59.060Z,18.45
2022-11-29T03:58:51.728Z,15.17
2022-11-29T04:01:22.013Z,15.45
2022-11-29T04:04:10.338Z,14.32
2022-11-29T04:07:08.394Z,14.35
2022-11-29T04:09:56.924Z,15.45
2022-11-29T04:12:42.199Z,13.00
2022-11-29T04:15:32.612Z,13.55
2022-11-29T04:18:21.149Z,14.13
2022-11-29T04:20:55.977Z,14.27
2022-11-29T04:23:35.267Z,14.13
2022-11-29T04:26:35.094Z,14.53
2022-11-29T04:29:16.478Z,13.65
2022-11-29T04:32:21.391Z,14.68
2022-11-29T04:35:06.944Z,14.98
2022-11-29T04:37:43.294Z,13.82
2022-11-29T04:40:13.414Z,12.73
2022-11-29T04:43:08.921Z,15.52
2022-11-29T04:46:03.931Z,12.82
2022-11-29T04:48:52.525Z,13.20
2022-11-29T04:51:39.992Z,17.17
2022-11-29T04:54:13.299Z,14.10
2022-11-29T04:56:54.519Z,19.45
2022-11-29T04:59:49.007Z,15.65
2022-11-29T05:02:51.621Z,16.98
2022-11-29T05:05:36.914Z,17.35
2022-11-29T05:08:20.024Z,15.43
2022-11-29T05:11:11.274Z,17.25
2022-11-29T05:14:02.813Z,14.93
2022-11-29T05:16:54.683Z,18.05
2022-11-29T05:19:57.612Z,15.73
2022-11-29T05:22:33.117Z,16.17
2022-11-29T05:25:18.658Z,14.48
2022-11-29T05:28:09.812Z,11.98
2022-11-29T05:31:03.741Z,10.77
2022-11-29T05:34:03.800Z,19.80
2022-11-29T05:36:44.219Z,19.33
2022-11-29T05:40:04.786Z,16.50
2022-11-29T05:43:03.714Z,10.38
2022-11-29T05:45:52.836Z,8.45
2022-11-29T05:48:31.966Z,11.48
2022-11-29T05:51:08.413Z,9.70
2022-11-29T05:53:54.051Z,11.18
2022-11-29T05:56:45.911Z,8.75
2022-11-29T05:59:29.003Z,22.40
2022-11-29T06:02:07.358Z,12.25
2022-11-29T06:05:13.478Z,11.77
2022-11-29T06:08:03.910Z,11.10
2022-11-29T06:10:42.075Z,11.40
2022-11-29T06:13:15.529Z,13.57
2022-11-29T06:16:05.155Z,11.90
2022-11-29T06:18:49.959Z,12.83
2022-11-29T06:21:40.470Z,14.30
2022-11-29T06:24:25.952Z,10.68
2022-11-29T06:27:04.970Z,13.88
2022-11-29T06:30:13.221Z,10.82
2022-11-29T06:33:19.624Z,11.60
2022-11-29T06:36:20.815Z,12.38
2022-11-29T06:38:48.625Z,13.27
2022-11-29T06:41:22.606Z,13.27
2022-11-29T06:43:51.353Z,13.05
2022-11-29T06:46:35.540Z,14.27
2022-11-29T06:49:05.877Z,16.17
2022-11-29T06:51:52.659Z,17.05
2022-11-29T06:54:38.788Z,16.17
2022-11-29T06:57:25.133Z,16.58
2022-11-29T07:00:12.094Z,16.63
2022-11-29T07:02:57.535Z,22.13
2022-11-29T07:05:33.080Z,18.40
2022-11-29T07:08:31.071Z,15.43
2022-11-29T07:11:00.039Z,14.80
2022-11-29T07:13:27.606Z,13.40
2022-11-29T07:16:20.307Z,11.80
2022-11-29T07:19:18.759Z,13.18
2022-11-29T07:21:55.429Z,11.40
2022-11-29T07:24:42.709Z,12.65
2022-11-29T07:27:10.205Z,13.40
2022-11-29T07:29:43.168Z,11.05
2022-11-29T07:32:37.613Z,11.70
2022-11-29T07:35:14.159Z,11.40
2022-11-29T07:38:09.184Z,12.48
2022-11-29T07:41:00.918Z,12.33
2022-11-29T07:43:57.262Z,11.60
2022-11-29T07:46:25.808Z,16.50
2022-11-29T07:48:53.177Z,14.13
2022-11-29T07:51:20.719Z,11.98
2022-11-29T07:53:48.515Z,10.97
2022-11-29T07:56:16.689Z,12.18
2022-11-29T07:58:44.265Z,11.15
2022-11-29T08:01:11.862Z,11.05
2022-11-29T08:03:41.275Z,9.77
2022-11-29T08:06:08.812Z,9.53
2022-11-29T08:08:42.272Z,8.63
2022-11-29T08:11:13.340Z,10.60
2022-11-29T08:13:40.770Z,10.98
2022-11-29T08:16:09.039Z,14.02
2022-11-29T08:18:39.343Z,14.17
2022-11-29T08:21:07.765Z,11.85
2022-11-29T08:23:35.131Z,9.75
2022-11-29T08:26:03.857Z,8.82
2022-11-29T08:28:31.103Z,11.82
2022-11-29T08:31:06.936Z,12.10
2022-11-29T08:33:40.008Z,14.27
2022-11-29T08:36:12.899Z,13.07
2022-11-29T08:38:40.474Z,12.30
2022-11-29T08:41:10.057Z,13.85
2022-11-29T08:43:37.616Z,15.67
2022-11-29T08:46:05.531Z,16.33
2022-11-29T08:48:33.163Z,15.68
2022-11-29T08:51:00.574Z,15.18
2022-11-29T08:53:43.885Z,13.20
2022-11-29T08:59:07.579Z,10.18
2022-11-29T09:01:35.119Z,10.68
2022-11-29T09:04:07.459Z,9.55
2022-11-29T09:06:39.854Z,10.00
2022-11-29T09:09:07.994Z,15.10
2022-11-29T09:11:36.666Z,20.38
2022-11-29T09:14:07.352Z,21.08
2022-11-29T09:16:37.660Z,22.50
2022-11-29T09:19:05.852Z,17.20
2022-11-29T09:21:35.236Z,17.33
2022-11-29T09:24:06.726Z,13.02
2022-11-29T09:26:36.406Z,12.68
2022-11-29T09:29:05.845Z,14.27
2022-11-29T09:31:34.008Z,13.05
2022-11-29T09:34:01.438Z,13.50
2022-11-29T09:36:31.013Z,11.95
2022-11-29T09:39:02.875Z,32.85
2022-11-29T09:42:05.542Z,11.75
2022-11-29T09:44:50.421Z,10.77
2022-11-29T09:47:33.242Z,12.33
2022-11-29T09:50:22.601Z,11.43
2022-11-29T09:53:21.272Z,10.82
2022-11-29T09:56:09.169Z,11.20
2022-11-29T09:59:01.575Z,11.52
2022-11-29T10:01:46.652Z,12.47
2022-11-29T10:04:24.548Z,10.90
2022-11-29T10:07:09.293Z,12.30
2022-11-29T10:09:56.535Z,9.38
2022-11-29T10:12:50.033Z,12.85
2022-11-29T10:15:29.825Z,11.23
2022-11-29T10:18:14.175Z,13.70
2022-11-29T10:20:48.985Z,9.52
2022-11-29T10:23:29.731Z,11.35
2022-11-29T10:25:58.695Z,11.75
2022-11-29T10:28:32.949Z,11.23
2022-11-29T10:31:16.852Z,8.73
2022-11-29T10:33:45.592Z,10.88
2022-11-29T10:36:19.929Z,9.00
2022-11-29T10:38:49.148Z,8.15
2022-11-29T10:41:22.791Z,8.67
2022-11-29T10:43:52.369Z,9.00
2022-11-29T10:46:32.759Z,10.27
2022-11-29T10:49:03.183Z,10.15
2022-11-29T10:51:32.172Z,8.65
2022-11-29T10:54:37.614Z,7.73
2022-11-29T10:57:15.512Z,11.27
2022-11-29T10:59:43.074Z,11.07
2022-11-29T11:02:21.389Z,8.80
2022-11-29T11:04:50.449Z,8.85
2022-11-29T11:07:36.349Z,7.20
2022-11-29T11:10:23.443Z,7.57
2022-11-29T11:13:20.560Z,6.88
2022-11-29T11:15:48.339Z,8.40
2022-11-29T11:18:24.643Z,7.95
2022-11-29T11:20:58.837Z,7.90
2022-11-29T11:23:27.753Z,9.00
2022-11-29T11:26:08.419Z,8.48
2022-11-29T11:29:02.819Z,8.68
2022-11-29T11:31:36.197Z,6.80
2022-11-29T11:34:30.003Z,7.53
2022-11-29T11:37:15.739Z,32.30
2022-11-29T11:39:44.296Z,10.90
2022-11-29T11:42:38.846Z,8.13
2022-11-29T11:45:12.254Z,8.05
2022-11-29T11:47:52.474Z,8.97
2022-11-29T11:50:53.210Z,8.98
2022-11-29T11:53:36.860Z,8.82
2022-11-29T11:56:10.696Z,8.32
2022-11-29T11:58:53.753Z,7.45
2022-11-29T12:01:30.610Z,7.20
2022-11-29T12:04:25.773Z,7.03
2022-11-29T12:06:54.559Z,7.35
2022-11-29T12:09:46.049Z,6.95
2022-11-29T12:12:19.244Z,10.48
2022-11-29T12:14:56.967Z,8.57
2022-11-29T12:17:39.757Z,7.95
2022-11-29T12:20:28.657Z,8.60
2022-11-29T12:23:27.605Z,8.13
2022-11-29T12:26:55.190Z,6.75
2022-11-29T12:29:19.463Z,7.00
2022-11-29T12:32:12.681Z,9.85
2022-11-29T12:35:00.837Z,12.05
2022-11-29T12:37:56.196Z,12.52
2022-11-29T12:40:38.894Z,9.68
2022-11-29T12:43:32.335Z,7.00
2022-11-29T12:46:12.315Z,9.07
2022-11-29T12:49:00.239Z,8.32
2022-11-29T12:51:47.163Z,6.70
2022-11-29T12:54:28.607Z,6.97
2022-11-29T12:57:06.649Z,8.60
2022-11-29T12:59:45.690Z,7.97
2022-11-29T13:02:34.988Z,9.40
2022-11-29T13:05:26.381Z,9.55
2022-11-29T13:08:16.451Z,12.10
2022-11-29T13:10:56.092Z,10.40
2022-11-29T13:13:49.287Z,10.15
2022-11-29T13:16:38.531Z,9.48
2022-11-29T13:19:11.168Z,17.10
2022-11-29T13:21:47.516Z,14.10
2022-11-29T13:24:38.361Z,12.57
2022-11-29T13:27:16.479Z,11.40
2022-11-29T13:29:44.135Z,9.55
2022-11-29T13:32:30.557Z,7.88
2022-11-29T13:35:21.842Z,9.10
2022-11-29T13:38:20.099Z,9.60
2022-11-29T13:41:05.731Z,11.02
2022-11-29T13:43:45.003Z,9.75
2022-11-29T13:46:20.141Z,13.27
2022-11-29T13:48:53.773Z,11.50
2022-11-29T13:51:37.805Z,10.77
2022-11-29T13:54:34.906Z,10.68
2022-11-29T13:57:10.458Z,9.13
2022-11-29T13:59:44.265Z,10.25
2022-11-29T14:02:30.664Z,10.85
2022-11-29T14:04:58.694Z,11.77
2022-11-29T14:07:26.332Z,11.00
2022-11-29T14:10:05.124Z,21.88
2022-11-29T14:12:37.037Z,19.55
2022-11-29T14:15:24.643Z,27.88
2022-11-29T14:18:02.939Z,28.60
2022-11-29T14:20:30.396Z,20.83
2022-11-29T14:23:09.450Z,23.90
2022-11-29T14:25:52.778Z,12.45
2022-11-29T14:28:23.419Z,14.80
2022-11-29T14:30:58.606Z,13.13
2022-11-29T14:33:47.882Z,9.85
2022-11-29T14:36:15.397Z,8.55
2022-11-29T14:39:05.946Z,9.60
2022-11-29T14:41:55.026Z,12.15
2022-11-29T14:44:54.727Z,12.37
2022-11-29T14:47:30.160Z,10.05
2022-11-29T14:50:00.331Z,13.48
2022-11-29T14:52:39.293Z,16.20
2022-11-29T14:55:29.321Z,16.35
2022-11-29T14:58:04.006Z,11.63
2022-11-29T15:00:44.187Z,12.40
2022-11-29T15:03:16.352Z,14.57
2022-11-29T15:05:46.703Z,11.70
2022-11-29T15:08:19.646Z,13.60
2022-11-29T15:10:52.985Z,12.67
2022-11-29T15:13:33.321Z,11.95
2022-11-29T15:16:38.580Z,12.60
2022-11-29T15:19:27.316Z,11.63
2022-11-29T15:22:07.954Z,9.95
2022-11-29T15:24:57.426Z,12.87
2022-11-29T15:27:25.792Z,11.50
2022-11-29T15:29:58.690Z,10.48
2022-11-29T15:32:32.719Z,11.57
2022-11-29T15:35:00.687Z,15.15
2022-11-29T15:37:37.797Z,14.10
2022-11-29T15:40:20.248Z,12.75
2022-11-29T15:43:02.722Z,11.80
2022-11-29T15:45:32.981Z,10.68
2022-11-29T15:48:30.646Z,14.13
2022-11-29T15:51:16.234Z,14.67
2022-11-29T15:54:11.302Z,17.55
2022-11-29T15:57:24.280Z,16.65
2022-11-29T16:00:01.740Z,18.30
2022-11-29T16:02:34.382Z,11.18
2022-11-29T16:05:16.632Z,10.90
2022-11-29T16:07:49.630Z,12.32
2022-11-29T16:10:23.338Z,8.43
2022-11-29T16:13:25.997Z,9.90
2022-11-29T16:16:15.110Z,15.50
2022-11-29T16:18:49.121Z,16.73
2022-11-29T16:21:33.020Z,13.48
2022-11-29T16:24:14.049Z,17.58
2022-11-29T16:26:45.108Z,18.85
2022-11-29T16:29:30.054Z,14.88
2022-11-29T16:31:58.046Z,10.03
2022-11-29T16:34:33.403Z,13.27
2022-11-29T16:37:01.276Z,13.05
2022-11-29T16:39:29.730Z,7.82
2022-11-29T16:42:39.461Z,9.10
2022-11-29T16:45:26.174Z,9.90
2022-11-29T16:48:00.851Z,8.90
2022-11-29T16:50:30.570Z,9.73
2022-11-29T16:53:35.998Z,9.65
2022-11-29T16:56:10.571Z,10.45
2022-11-29T16:58:43.062Z,11.73
2022-11-29T17:01:28.781Z,11.40
2022-11-29T17:04:01.333Z,10.65
2022-11-29T17:06:30.360Z,9.43
2022-11-29T17:08:59.685Z,9.88
2022-11-29T17:11:27.642Z,8.23
2022-11-29T17:13:55.029Z,9.68
2022-11-29T17:16:24.275Z,10.68
2022-11-29T17:18:53.185Z,10.38
2022-11-29T17:21:27.693Z,11.40
2022-11-29T17:23:55.301Z,11.03
2022-11-29T17:26:24.951Z,10.27
2022-11-29T17:28:53.373Z,10.02
2022-11-29T17:31:25.322Z,9.00
2022-11-29T17:33:54.935Z,9.75
2022-11-29T17:36:25.346Z,9.57
2022-11-29T17:38:53.265Z,13.00
2022-11-29T17:41:28.360Z,11.40
2022-11-29T17:44:01.182Z,10.25
2022-11-29T17:46:34.953Z,9.85
2022-11-29T17:49:05.626Z,10.43
2022-11-29T17:54:24.656Z,11.23
2022-11-29T17:56:52.226Z,9.60
2022-11-29T17:59:20.528Z,9.43
2022-11-29T18:01:48.488Z,10.13
2022-11-29T18:04:17.424Z,8.63
2022-11-29T18:06:50.424Z,9.55
2022-11-29T18:09:20.015Z,10.68
2022-11-29T18:11:50.133Z,12.70
2022-11-29T18:14:28.760Z,8.60
2022-11-29T18:16:56.398Z,12.35
2022-11-29T18:19:24.080Z,9.85
2022-11-29T18:21:52.017Z,10.18
2022-11-29T18:24:20.072Z,10.32
2022-11-29T18:26:48.310Z,11.60
2022-11-29T18:29:15.887Z,10.30
2022-11-29T18:31:45.625Z,10.32
2022-11-29T18:34:14.510Z,10.35
2022-11-29T18:36:52.185Z,10.10
2022-11-29T18:39:23.798Z,9.87
2022-11-29T18:41:52.018Z,9.73
2022-11-29T18:44:22.566Z,9.50
2022-11-29T18:46:49.865Z,8.88
2022-11-29T18:49:18.916Z,7.45
2022-11-29T18:51:50.421Z,10.43
2022-11-29T18:54:19.451Z,9.95
2022-11-29T18:56:50.594Z,10.40
2022-11-29T18:59:18.573Z,7.90
2022-11-29T19:01:48.678Z,9.75
2022-11-29T19:04:22.585Z,10.10
2022-11-29T19:06:50.495Z,10.50
2022-11-29T19:09:24.914Z,9.73
2022-11-29T19:11:52.333Z,9.32
2022-11-29T19:14:20.654Z,9.23
2022-11-29T19:16:49.618Z,8.87
2022-11-29T19:19:19.228Z,10.60
2022-11-29T19:21:47.105Z,10.00
2022-11-29T19:24:18.209Z,10.57
2022-11-29T19:26:47.982Z,11.20
2022-11-29T19:29:16.267Z,10.13
2022-11-29T19:31:44.289Z,12.05
2022-11-29T19:34:12.258Z,10.32
2022-11-29T19:36:45.046Z,11.32
2022-11-29T19:39:17.371Z,11.65
2022-11-29T19:41:47.019Z,9.70
2022-11-29T19:44:14.618Z,10.25
2022-11-29T19:46:49.134Z,10.00
2022-11-29T19:49:17.296Z,11.27
2022-11-29T19:51:45.134Z,11.82
2022-11-29T19:54:13.477Z,12.37
2022-11-29T19:56:41.859Z,13.32
2022-11-29T19:59:09.745Z,13.13
2022-11-29T20:01:42.792Z,11.32
2022-11-29T20:04:12.896Z,15.65
2022-11-29T20:06:40.977Z,12.03
2022-11-29T20:09:08.902Z,12.27
2022-11-29T20:11:36.850Z,10.85
2022-11-29T20:14:06.177Z,11.77
2022-11-29T20:16:34.237Z,12.18
2022-11-29T20:19:02.090Z,11.33
2022-11-29T20:21:32.303Z,9.48
2022-11-29T20:24:02.951Z,11.27
2022-11-29T20:26:31.866Z,10.45
2022-11-29T20:29:00.258Z,10.65
2022-11-29T20:31:28.416Z,11.10
2022-11-29T20:33:59.509Z,9.70
2022-11-29T20:37:07.596Z,10.32
2022-11-29T20:40:00.638Z,13.65
2022-11-29T20:42:56.896Z,11.57
2022-11-29T20:45:25.865Z,13.20
2022-11-29T20:48:13.550Z,12.55
2022-11-29T20:50:43.400Z,13.05
2022-11-29T20:53:29.421Z,14.57
2022-11-29T20:55:56.872Z,13.18
2022-11-29T20:58:26.719Z,13.30
2022-11-29T21:00:55.047Z,12.57
2022-11-29T21:03:23.771Z,11.10
2022-11-29T21:05:52.204Z,12.60
2022-11-29T21:08:22.248Z,12.07
2022-11-29T21:10:50.900Z,14.43
2022-11-29T21:13:20.673Z,12.40
2022-11-29T21:15:48.780Z,11.32
2022-11-29T21:18:27.611Z,15.18
2022-11-29T21:21:23.077Z,12.55
2022-11-29T21:23:55.802Z,11.87
2022-11-29T21:26:41.710Z,14.88
2022-11-29T21:29:20.134Z,11.70
2022-11-29T21:31:49.489Z,16.08
2022-11-29T21:34:17.012Z,11.50
2022-11-29T21:36:45.499Z,10.10
2022-11-29T21:39:16.555Z,13.48
2022-11-29T21:41:44.029Z,12.35
2022-11-29T21:44:11.401Z,11.82
2022-11-29T21:46:38.899Z,11.32
2022-11-29T21:49:06.583Z,11.50
2022-11-29T21:51:34.123Z,11.48
2022-11-29T21:54:02.328Z,11.25
2022-11-29T21:56:29.905Z,9.25
2022-11-29T21:58:57.296Z,14.18
2022-11-29T22:01:25.179Z,16.67
2022-11-29T22:03:54.204Z,15.95
2022-11-29T22:06:24.487Z,11.68
2022-11-29T22:08:52.353Z,11.57
2022-11-29T22:11:31.257Z,13.18
2022-11-29T22:14:16.160Z,10.20
2022-11-29T22:16:48.679Z,10.85
2022-11-29T22:19:21.364Z,13.38
2022-11-29T22:21:52.614Z,10.38
2022-11-29T22:24:22.898Z,12.98
2022-11-29T22:26:51.761Z,9.10
2022-11-29T22:29:19.704Z,11.27
2022-11-29T22:31:50.790Z,10.85
2022-11-29T22:34:18.386Z,10.82
2022-11-29T22:36:46.409Z,10.40
2022-11-29T22:39:13.856Z,10.90
2022-11-29T22:41:42.050Z,11.02
2022-11-29T22:44:09.939Z,9.13
2022-11-29T22:46:40.582Z,11.48
2022-11-29T22:49:08.564Z,9.30
2022-11-29T22:51:37.966Z,8.93
2022-11-29T22:54:11.838Z,8.68
2022-11-29T22:56:41.411Z,9.40
2022-11-29T22:59:09.465Z,8.23
2022-11-29T23:01:39.392Z,9.63
2022-11-29T23:04:08.687Z,8.87
2022-11-29T23:06:38.959Z,9.00
2022-11-29T23:09:12.280Z,10.98
2022-11-29T23:11:39.967Z,9.48
2022-11-29T23:14:07.360Z,9.98
2022-11-29T23:16:34.983Z,8.83
2022-11-29T23:19:02.603Z,9.57
2022-11-29T23:21:35.491Z,9.88
2022-11-29T23:24:03.356Z,8.95
2022-11-29T23:26:40.465Z,9.13
2022-11-29T23:29:16.218Z,9.80
2022-11-29T23:31:44.047Z,9.38
2022-11-29T23:34:11.769Z,10.00
2022-11-29T23:36:39.426Z,9.30
2022-11-29T23:39:07.460Z,9.38
2022-11-29T23:41:36.608Z,9.43
2022-11-29T23:44:07.330Z,9.82
2022-11-29T23:46:35.985Z,9.30
2022-11-29T23:49:03.526Z,9.35
2022-11-29T23:51:30.991Z,11.32
2022-11-29T23:53:58.372Z,10.10
2022-11-29T23:56:25.870Z,10.18
2022-11-29T23:58:53.320Z,9.38
